Terminal Aerodrome Forecast
Issued by NWS Twin Cities, MN

Home | Current Version | Previous Version | Text Only | Print | Product List | Glossary On
Versions: 1 2 3 4 5 6 7 8 9 10 11 12 13 14 15 16 17 18 19 20 21 22 23 24
000
FTUS43 KMPX 230520
TAFMSP
TAF
KMSP 230520Z 2306/2412 12004KT P6SM BKN250
     FM231200 18005KT P6SM BKN130
     FM231700 19009KT P6SM SCT060 OVC090
     FM240100 14006KT P6SM OVC060
     FM240900 11005KT P6SM -RA OVC035=

USA.gov is the U.S. government's official web portal to all federal, state and local government web resources and services.